< < Back
Terminal Aerodrome Forecast


Current Version              Previous Versions:   1  2  3  4  5  6  7  8  9  

Terminal Aerodrome Forecast

091
FTUS42 KJAX 311700
TAFGNV
TAF
KGNV 311722Z 3118/0118 31008KT P6SM SCT035
     FM010000 27005KT P6SM SKC
     FM010900 29012G22KT P6SM FEW035
     FM011400 30020G28KT P6SM SKC=



Latest METAR

519
SAUS70 KWBC 010400 RRP
MTRGNV
METAR KGNV 010353Z AUTO 27006KT 10SM CLR 11/08 A2990 RMK AO2 SLP122
T01110078


USA.gov is the U.S. government's official web portal to all federal, state and local government web resources and services.